Dover Air Force Base
KDOV : rendu visible

Aérodrome :











RETROUVEZ-NOUS SUR...

 
LOGIN :

S'inscrire | Disclaimer

   EN    FR    IT 

 









Légende :    VFR   VFR Marginal   IFR   IFR Intensif   IFR Très Intensif
Visi : 
Plafond : 
>= 8 km
>= 3000ft
5 à 8 km
1000 à 3000 ft
1500m à 5 km
500 à 1000 ft
800 à 1500m
200 à 500 ft
< 800m
< 200 ft
Symboles :   Orages  Brouillard  Fortes neiges  Fortes précipitations  Vent > 20 kt






- Altitude de l'aérodrome : 24 ft


KDOV - Dover Air Force Base

DERNIER METAR :
  • 261756Z AUTO 12005KT 10SM OVC009 20/17 A3022 RMK AO2 SLP237 T01960174 10196 20159 58004 $

METARs EXPIRÉS :
  • 261656Z AUTO 00000KT 10SM OVC009 19/17 A3023 RMK AO2 SLP240 T01910172 $
  • 261626Z AUTO 10005KT 10SM OVC009 19/18 A3023 RMK AO2 CIG 007V009 CIG 008 RWY19 SLP240 $
  • 261556Z AUTO 00000KT 10SM OVC007 18/18 A3024 RMK AO2 SLP243 T01800180 $
  • 261506Z AUTO 03004KT 10SM OVC006 17/17 A3023 RMK AO2 SLP240 $

TAF TAF KDOV
Valide du 26 à 16h jusqu'au 27 à 22h UTC


261606Z 2616/2722 09006KT 8000 BR OVC006 QNH3026INS
BECMG 2623/2624 10006KT 8000 BR BKN005 QNH3020INS
BECMG 2717/2718 12006KT 4800 BR FEW013 QNH3021INS TX20/2617Z TN16/2708Z
FIR KZDC / Amérique du Nord



MET'MAP, la Météo Aéronautique d'un coup d'oeil ! - Copyright ORBIFLY Décembre 2007 - Disclaimer

ORBIFLY MET'MAP TEAM :

Programmation & Développement : Alexandra Zaïnal
Sur une idée originale de : Baudouin d'Aumeries
Assistance à la programmation : Marc-Olivier Méhu
Soutien technique & logistique : Manuel Goepfert

Contact : metmap@orbifly.com




SOURCES & CREDITS :

   NOAA       Earth
Advisory